createdAt,value
2022-11-24T00:02:10.656Z,75.83
2022-11-24T00:04:41.534Z,75.96
2022-11-24T00:07:12.440Z,76.07
2022-11-24T00:09:43.203Z,75.87
2022-11-24T00:12:13.812Z,75.58
2022-11-24T00:14:44.809Z,75.50
2022-11-24T00:17:15.597Z,75.80
2022-11-24T00:19:46.478Z,76.26
2022-11-24T00:22:17.098Z,76.65
2022-11-24T00:24:47.693Z,77.07
2022-11-24T00:27:18.509Z,77.40
2022-11-24T00:29:49.283Z,77.57
2022-11-24T00:32:20.089Z,77.43
2022-11-24T00:34:50.770Z,77.16
2022-11-24T00:37:21.468Z,77.26
2022-11-24T00:39:52.207Z,76.90
2022-11-24T00:42:22.840Z,77.09
2022-11-24T00:44:53.682Z,76.95
2022-11-24T00:47:24.501Z,76.81
2022-11-24T00:49:55.273Z,76.96
2022-11-24T00:52:25.868Z,76.95
2022-11-24T00:54:56.626Z,76.88
2022-11-24T00:57:27.334Z,76.87
2022-11-24T00:59:58.051Z,76.51
2022-11-24T01:02:29.177Z,76.76
2022-11-24T01:04:59.841Z,76.21
2022-11-24T01:07:30.530Z,76.71
2022-11-24T01:10:01.266Z,76.61
2022-11-24T01:12:31.903Z,76.63
2022-11-24T01:15:03.009Z,76.67
2022-11-24T01:17:33.819Z,76.84
2022-11-24T01:20:05.172Z,76.42
2022-11-24T01:22:35.833Z,76.11
2022-11-24T01:25:07.772Z,75.94
2022-11-24T01:27:39.164Z,75.69
2022-11-24T01:30:12.427Z,75.77
2022-11-24T01:32:43.155Z,76.11
2022-11-24T01:35:13.960Z,75.94
2022-11-24T01:37:44.627Z,75.47
2022-11-24T01:40:16.031Z,75.77
2022-11-24T01:42:52.884Z,76.27
2022-11-24T01:45:40.745Z,76.49
2022-11-24T01:48:23.185Z,76.35
2022-11-24T01:51:05.026Z,76.25
2022-11-24T01:53:36.709Z,76.77
2022-11-24T01:56:08.972Z,77.19
2022-11-24T01:58:41.872Z,77.42
2022-11-24T02:01:14.087Z,77.49
2022-11-24T02:03:47.131Z,77.89
2022-11-24T02:06:21.533Z,77.66
2022-11-24T02:08:59.188Z,77.87
2022-11-24T02:11:34.738Z,78.00
2022-11-24T02:14:07.286Z,77.44
2022-11-24T02:16:40.484Z,77.37
2022-11-24T02:19:14.704Z,77.29
2022-11-24T02:21:45.411Z,76.93
2022-11-24T02:24:24.495Z,77.10
2022-11-24T02:26:55.091Z,77.08
2022-11-24T02:29:25.818Z,76.78
2022-11-24T02:32:01.591Z,76.64
2022-11-24T02:34:32.649Z,76.59
2022-11-24T02:37:03.569Z,76.14
2022-11-24T02:39:34.323Z,76.12
2022-11-24T02:42:09.340Z,75.50
2022-11-24T02:44:44.876Z,75.75
2022-11-24T02:47:16.096Z,75.78
2022-11-24T02:49:46.771Z,76.10
2022-11-24T02:52:17.539Z,76.35
2022-11-24T02:54:48.366Z,76.55
2022-11-24T02:57:18.998Z,76.63
2022-11-24T02:59:49.755Z,76.54
2022-11-24T03:02:20.863Z,76.73
2022-11-24T03:04:51.539Z,76.81
2022-11-24T03:07:23.021Z,76.67
2022-11-24T03:09:53.777Z,77.05
2022-11-24T03:12:24.547Z,77.13
2022-11-24T03:14:55.225Z,76.73
2022-11-24T03:17:26.040Z,76.99
2022-11-24T03:20:01.452Z,76.92
2022-11-24T03:22:35.125Z,76.79
2022-11-24T03:25:06.896Z,76.85
2022-11-24T03:27:37.584Z,76.66
2022-11-24T03:30:10.749Z,76.89
2022-11-24T03:32:40.239Z,76.71
2022-11-24T03:35:12.135Z,76.33
2022-11-24T03:37:42.885Z,76.63
2022-11-24T03:40:14.875Z,76.21
2022-11-24T03:42:45.450Z,76.02
2022-11-24T03:45:44.203Z,76.00
2022-11-24T03:48:08.231Z,75.93
2022-11-24T03:50:39.063Z,75.91
2022-11-24T03:53:10.196Z,76.10
2022-11-24T03:55:40.831Z,75.93
2022-11-24T03:58:11.445Z,76.25
2022-11-24T04:00:42.192Z,76.32
2022-11-24T04:03:13.088Z,76.54
2022-11-24T04:05:43.852Z,76.33
2022-11-24T04:08:14.807Z,76.22
2022-11-24T04:10:45.868Z,76.21
2022-11-24T04:13:18.602Z,76.30
2022-11-24T04:15:49.476Z,76.38
2022-11-24T04:18:20.734Z,76.15
2022-11-24T04:20:53.282Z,76.63
2022-11-24T04:23:24.380Z,76.54
2022-11-24T04:25:55.143Z,76.54
2022-11-24T04:28:25.878Z,76.74
2022-11-24T04:30:56.729Z,76.81
2022-11-24T04:33:27.408Z,77.00
2022-11-24T04:35:58.386Z,77.30
2022-11-24T04:39:25.774Z,77.18
2022-11-24T04:41:19.882Z,76.96
2022-11-24T04:43:53.525Z,77.45
2022-11-24T04:46:24.249Z,77.37
2022-11-24T04:48:55.099Z,77.39
2022-11-24T04:51:25.852Z,77.86
2022-11-24T04:53:56.560Z,77.82
2022-11-24T04:56:27.246Z,78.13
2022-11-24T04:58:57.910Z,78.35
2022-11-24T05:01:28.786Z,78.07
2022-11-24T05:03:59.831Z,78.15
2022-11-24T05:06:30.638Z,78.17
2022-11-24T05:09:01.282Z,78.22
2022-11-24T05:11:31.912Z,78.36
2022-11-24T05:14:03.018Z,78.82
2022-11-24T05:16:33.768Z,79.27
2022-11-24T05:19:04.559Z,79.43
2022-11-24T05:21:35.252Z,78.95
2022-11-24T05:24:06.796Z,79.11
2022-11-24T05:26:37.398Z,78.99
2022-11-24T05:29:08.160Z,79.38
2022-11-24T05:31:39.131Z,79.59
2022-11-24T05:34:10.107Z,79.48
2022-11-24T05:36:56.387Z,79.47
2022-11-24T05:39:27.008Z,79.46
2022-11-24T05:41:57.816Z,80.12
2022-11-24T05:44:28.487Z,79.99
2022-11-24T05:46:59.358Z,79.47
2022-11-24T05:49:30.034Z,80.63
2022-11-24T05:52:00.625Z,80.52
2022-11-24T05:54:31.665Z,80.19
2022-11-24T05:57:02.608Z,79.76
2022-11-24T05:59:33.923Z,79.58
2022-11-24T06:02:04.645Z,79.01
2022-11-24T06:04:35.782Z,79.15
2022-11-24T06:07:08.911Z,79.72
2022-11-24T06:09:41.010Z,79.26
2022-11-24T06:12:13.351Z,79.81
2022-11-24T06:14:44.325Z,79.71
2022-11-24T06:17:15.439Z,79.76
2022-11-24T06:19:50.237Z,79.79
2022-11-24T06:22:21.047Z,79.57
2022-11-24T06:24:51.826Z,79.98
2022-11-24T06:27:22.417Z,80.42
2022-11-24T06:29:53.253Z,79.80
2022-11-24T06:32:24.207Z,79.85
2022-11-24T06:34:55.004Z,80.04
2022-11-24T06:37:25.727Z,79.53
2022-11-24T06:39:56.363Z,80.40
2022-11-24T06:42:27.105Z,88.47
2022-11-24T06:44:57.814Z,89.09
2022-11-24T06:47:28.494Z,83.36
2022-11-24T06:49:59.571Z,79.87
2022-11-24T06:52:29.952Z,79.51
2022-11-24T06:55:00.723Z,78.90
2022-11-24T06:57:31.674Z,78.55
2022-11-24T07:00:02.416Z,78.57
2022-11-24T07:02:33.354Z,78.31
2022-11-24T07:05:04.055Z,78.19
2022-11-24T07:07:34.732Z,78.34
2022-11-24T07:10:06.630Z,78.14
2022-11-24T07:12:38.035Z,78.51
2022-11-24T07:15:10.824Z,78.35
2022-11-24T07:17:41.772Z,78.51
2022-11-24T07:20:13.304Z,78.23
2022-11-24T07:22:43.970Z,78.96
2022-11-24T07:25:17.384Z,78.99
2022-11-24T07:27:48.047Z,78.82
2022-11-24T07:30:19.858Z,78.85
2022-11-24T07:32:50.536Z,78.47
2022-11-24T07:35:21.166Z,78.42
2022-11-24T07:37:52.383Z,78.65
2022-11-24T07:40:23.403Z,78.58
2022-11-24T07:42:54.090Z,78.34
2022-11-24T07:45:24.922Z,78.99
2022-11-24T07:47:55.521Z,78.93
2022-11-24T07:50:26.524Z,79.45
2022-11-24T07:53:01.907Z,79.73
2022-11-24T07:55:32.597Z,79.49
2022-11-24T07:58:04.105Z,79.64
2022-11-24T08:00:34.874Z,79.41
2022-11-24T08:03:05.564Z,79.19
2022-11-24T08:05:49.123Z,79.27
2022-11-24T08:08:27.981Z,79.00
2022-11-24T08:10:58.612Z,79.23
2022-11-24T08:13:29.194Z,79.86
2022-11-24T08:15:59.841Z,79.69
2022-11-24T08:18:30.488Z,79.41
2022-11-24T08:21:02.150Z,79.31
2022-11-24T08:23:33.374Z,79.59
2022-11-24T08:26:09.235Z,79.46
2022-11-24T08:28:40.273Z,79.45
2022-11-24T08:31:12.821Z,79.79
2022-11-24T08:33:44.399Z,79.68
2022-11-24T08:36:16.950Z,80.22
2022-11-24T08:38:49.035Z,79.85
2022-11-24T08:41:19.827Z,80.01
2022-11-24T08:43:50.500Z,80.09
2022-11-24T08:46:21.868Z,79.80
2022-11-24T08:48:54.178Z,80.29
2022-11-24T08:51:27.379Z,79.55
2022-11-24T08:53:59.370Z,79.66
2022-11-24T08:56:31.875Z,79.89
2022-11-24T08:59:03.629Z,79.81
2022-11-24T09:01:34.523Z,79.83
2022-11-24T09:04:05.380Z,79.88
2022-11-24T09:06:36.047Z,79.79
2022-11-24T09:09:06.860Z,79.71
2022-11-24T09:11:37.465Z,79.57
2022-11-24T09:14:08.089Z,79.72
2022-11-24T09:16:38.962Z,79.93
2022-11-24T09:19:11.174Z,79.75
2022-11-24T09:21:42.094Z,79.84
2022-11-24T09:24:13.536Z,80.00
2022-11-24T09:26:47.619Z,80.19
2022-11-24T09:29:22.769Z,79.61
2022-11-24T09:31:53.593Z,80.09
2022-11-24T09:34:24.217Z,80.30
2022-11-24T09:36:55.653Z,80.68
2022-11-24T09:39:26.386Z,80.49
2022-11-24T09:42:18.969Z,80.07
2022-11-24T09:45:12.706Z,80.69
2022-11-24T09:47:55.194Z,80.55
2022-11-24T09:50:27.864Z,80.42
2022-11-24T09:53:04.250Z,80.80
2022-11-24T09:55:45.354Z,80.90
2022-11-24T09:58:31.260Z,80.73
2022-11-24T10:01:11.059Z,80.82
2022-11-24T10:03:44.669Z,80.75
2022-11-24T10:06:23.753Z,80.56
2022-11-24T10:09:10.208Z,80.57
2022-11-24T10:11:47.788Z,80.58
2022-11-24T10:15:03.932Z,80.54
2022-11-24T10:17:52.595Z,80.70
2022-11-24T10:20:33.792Z,80.83
2022-11-24T10:23:20.078Z,80.64
2022-11-24T10:25:57.329Z,80.58
2022-11-24T10:28:33.207Z,80.91
2022-11-24T10:31:23.556Z,81.07
2022-11-24T10:33:54.497Z,80.81
2022-11-24T10:36:33.202Z,80.96
2022-11-24T10:39:11.395Z,80.72
2022-11-24T10:41:49.875Z,80.76
2022-11-24T10:44:20.730Z,80.96
2022-11-24T10:46:52.142Z,80.68
2022-11-24T10:49:28.731Z,80.82
2022-11-24T10:52:07.919Z,80.68
2022-11-24T10:54:54.291Z,80.88
2022-11-24T10:57:33.314Z,80.90
2022-11-24T11:00:03.566Z,80.73
2022-11-24T11:02:39.872Z,81.20
2022-11-24T11:05:42.427Z,81.27
2022-11-24T11:08:23.060Z,81.54
2022-11-24T11:11:11.365Z,81.72
2022-11-24T11:13:52.041Z,81.39
2022-11-24T11:16:34.647Z,81.67
2022-11-24T11:19:25.993Z,81.47
2022-11-24T11:22:05.443Z,81.60
2022-11-24T11:24:37.023Z,81.57
2022-11-24T11:27:17.719Z,81.28
2022-11-24T11:35:47.996Z,81.11
2022-11-24T11:38:18.934Z,80.93
2022-11-24T11:40:52.560Z,80.63
2022-11-24T11:43:28.581Z,80.64
2022-11-24T11:46:04.789Z,80.45
2022-11-24T11:48:43.159Z,80.56
2022-11-24T11:51:32.210Z,80.48
2022-11-24T11:54:15.026Z,80.38
2022-11-24T11:56:48.592Z,80.38
2022-11-24T11:59:46.813Z,80.58
2022-11-24T12:02:40.652Z,80.57
2022-11-24T12:05:19.495Z,80.46
2022-11-24T12:08:09.205Z,80.34
2022-11-24T12:10:46.906Z,80.36
2022-11-24T12:13:43.254Z,80.45
2022-11-24T12:16:30.851Z,80.43
2022-11-24T12:19:16.530Z,80.60
2022-11-24T12:21:56.687Z,80.69
2022-11-24T12:24:38.773Z,80.54
2022-11-24T12:27:22.833Z,80.80
2022-11-24T12:30:09.146Z,80.47
2022-11-24T12:33:08.842Z,80.45
2022-11-24T12:35:43.939Z,80.54
2022-11-24T12:38:33.616Z,80.50
2022-11-24T12:41:45.789Z,80.68
2022-11-24T12:44:28.932Z,80.74
2022-11-24T12:47:08.758Z,80.59
2022-11-24T12:49:51.600Z,80.59
2022-11-24T12:52:27.362Z,80.61
2022-11-24T12:54:59.251Z,80.75
2022-11-24T12:57:36.919Z,80.89
2022-11-24T13:00:17.795Z,81.12
2022-11-24T13:03:01.786Z,80.96
2022-11-24T13:05:42.658Z,80.90
2022-11-24T13:08:15.302Z,80.83
2022-11-24T13:10:55.687Z,80.64
2022-11-24T13:13:49.437Z,80.73
2022-11-24T13:16:35.708Z,80.51
2022-11-24T13:19:15.045Z,80.66
2022-11-24T13:21:57.636Z,80.51
2022-11-24T13:24:33.836Z,80.75
2022-11-24T13:27:40.895Z,80.44
2022-11-24T13:30:51.427Z,80.72
2022-11-24T13:33:32.502Z,80.57
2022-11-24T13:36:54.493Z,80.68
2022-11-24T13:39:50.616Z,80.50
2022-11-24T13:42:42.849Z,80.54
2022-11-24T13:45:49.741Z,80.74
2022-11-24T13:48:51.365Z,80.71
2022-11-24T13:51:26.784Z,80.79
2022-11-24T13:54:00.912Z,80.72
2022-11-24T13:56:33.213Z,80.85
2022-11-24T13:59:18.789Z,80.91
2022-11-24T14:01:59.308Z,80.92
2022-11-24T14:04:32.881Z,80.98
2022-11-24T14:07:08.741Z,80.98
2022-11-24T14:09:45.782Z,81.13
2022-11-24T14:12:20.286Z,81.17
2022-11-24T14:14:52.804Z,81.20
2022-11-24T14:17:25.531Z,81.32
2022-11-24T14:19:58.698Z,81.18
2022-11-24T14:22:37.272Z,81.23
2022-11-24T14:25:21.085Z,81.31
2022-11-24T14:27:51.854Z,81.32
2022-11-24T14:30:26.050Z,81.49
2022-11-24T14:33:01.357Z,81.49
2022-11-24T14:35:34.067Z,81.53
2022-11-24T14:38:06.900Z,81.48
2022-11-24T14:40:46.607Z,81.36
2022-11-24T14:43:23.772Z,81.46
2022-11-24T14:45:57.557Z,81.55
2022-11-24T14:48:30.449Z,81.47
2022-11-24T14:51:08.533Z,81.46
2022-11-24T14:53:42.031Z,81.64
2022-11-24T14:56:25.522Z,81.73
2022-11-24T14:58:57.445Z,81.61
2022-11-24T15:01:34.993Z,81.74
2022-11-24T15:04:46.708Z,81.67
2022-11-24T15:07:21.586Z,81.63
2022-11-24T15:09:58.012Z,81.84
2022-11-24T15:12:34.260Z,81.82
2022-11-24T15:15:07.784Z,81.78
2022-11-24T15:17:38.618Z,81.88
2022-11-24T15:20:21.660Z,81.91
2022-11-24T15:22:52.912Z,81.77
2022-11-24T15:25:33.459Z,82.06
2022-11-24T15:28:04.226Z,82.00
2022-11-24T15:30:37.279Z,82.04
2022-11-24T15:33:16.507Z,82.06
2022-11-24T15:35:48.786Z,82.11
2022-11-24T15:38:19.606Z,82.31
2022-11-24T15:40:52.012Z,82.49
2022-11-24T15:43:32.938Z,82.40
2022-11-24T15:46:04.727Z,82.40
2022-11-24T15:48:35.826Z,82.33
2022-11-24T15:51:12.425Z,82.33
2022-11-24T15:53:46.559Z,82.40
2022-11-24T15:56:25.502Z,82.42
2022-11-24T15:58:54.893Z,82.36
2022-11-24T16:01:28.611Z,82.39
2022-11-24T16:03:59.550Z,82.59
2022-11-24T16:06:30.408Z,82.60
2022-11-24T16:09:01.201Z,82.40
2022-11-24T16:11:31.983Z,82.39
2022-11-24T16:14:02.785Z,82.58
2022-11-24T16:16:33.485Z,82.52
2022-11-24T16:19:04.346Z,82.40
2022-11-24T16:21:34.954Z,82.44
2022-11-24T16:24:06.089Z,82.13
2022-11-24T16:26:37.028Z,82.16
2022-11-24T16:29:07.781Z,82.16
2022-11-24T16:31:38.541Z,81.79
2022-11-24T16:34:09.212Z,81.84
2022-11-24T16:36:39.808Z,82.29
2022-11-24T16:39:10.454Z,82.35
2022-11-24T16:41:41.136Z,82.24
2022-11-24T16:44:11.840Z,82.48
2022-11-24T16:46:44.670Z,82.53
2022-11-24T16:49:17.602Z,82.77
2022-11-24T16:51:46.720Z,82.49
2022-11-24T16:54:18.479Z,82.53
2022-11-24T16:56:49.399Z,82.49
2022-11-24T16:59:20.092Z,82.55
2022-11-24T17:01:51.314Z,82.55
2022-11-24T17:04:22.672Z,82.58
2022-11-24T17:06:53.717Z,82.62
2022-11-24T17:09:24.735Z,82.74
2022-11-24T17:11:55.547Z,82.92
2022-11-24T17:14:26.310Z,83.02
2022-11-24T17:16:57.071Z,83.00
2022-11-24T17:19:27.907Z,82.82
2022-11-24T17:21:58.751Z,82.77
2022-11-24T17:24:29.972Z,82.90
2022-11-24T17:27:00.797Z,83.03
2022-11-24T17:29:31.726Z,83.01
2022-11-24T17:32:02.459Z,82.90
2022-11-24T17:34:33.920Z,82.74
2022-11-24T17:37:04.825Z,82.86
2022-11-24T17:39:35.512Z,83.06
2022-11-24T17:42:07.046Z,83.11
2022-11-24T17:44:37.936Z,83.34
2022-11-24T17:47:09.025Z,83.06
2022-11-24T17:49:39.755Z,83.08
2022-11-24T17:52:10.895Z,83.18
2022-11-24T17:54:48.979Z,83.26
2022-11-24T17:57:19.816Z,83.29
2022-11-24T17:59:51.568Z,83.26
2022-11-24T18:02:22.506Z,83.35
2022-11-24T18:04:53.351Z,83.11
2022-11-24T18:07:24.066Z,83.19
2022-11-24T18:09:54.668Z,83.26
2022-11-24T18:12:25.356Z,83.40
2022-11-24T18:14:56.312Z,83.43
2022-11-24T18:17:29.202Z,83.30
2022-11-24T18:19:58.483Z,82.91
2022-11-24T18:22:50.414Z,82.96
2022-11-24T18:25:20.431Z,83.02
2022-11-24T18:27:51.187Z,82.92
2022-11-24T18:30:22.320Z,82.74
2022-11-24T18:32:53.142Z,82.61
2022-11-24T18:35:23.917Z,82.34
2022-11-24T18:37:54.568Z,82.57
2022-11-24T18:40:25.300Z,82.54
2022-11-24T18:42:55.943Z,82.77
2022-11-24T18:45:27.357Z,82.49
2022-11-24T18:47:58.179Z,82.78
2022-11-24T18:50:28.831Z,82.92
2022-11-24T18:53:00.096Z,83.05
2022-11-24T18:55:30.850Z,83.13
2022-11-24T18:58:01.870Z,83.22
2022-11-24T19:00:33.603Z,83.23
2022-11-24T19:03:04.389Z,83.41
2022-11-24T19:05:37.359Z,83.57
2022-11-24T19:08:06.800Z,83.71
2022-11-24T19:10:40.746Z,83.86
2022-11-24T19:13:12.766Z,83.85
2022-11-24T19:15:45.728Z,83.80
2022-11-24T19:18:16.591Z,83.53
2022-11-24T19:20:47.718Z,83.71
2022-11-24T19:23:19.383Z,83.68
2022-11-24T19:25:50.227Z,83.47
2022-11-24T19:28:20.959Z,83.58
2022-11-24T19:30:51.912Z,83.55
2022-11-24T19:33:23.509Z,83.71
2022-11-24T19:36:03.485Z,83.74
2022-11-24T19:38:35.458Z,83.55
2022-11-24T19:41:07.822Z,83.56
2022-11-24T19:43:39.150Z,83.99
2022-11-24T19:46:12.651Z,83.81
2022-11-24T19:48:45.278Z,83.96
2022-11-24T19:51:17.439Z,83.98
2022-11-24T19:53:48.485Z,83.86
2022-11-24T19:56:21.244Z,84.05
2022-11-24T19:58:53.181Z,84.02
2022-11-24T20:01:26.567Z,83.64
2022-11-24T20:04:00.137Z,83.87
2022-11-24T20:06:32.410Z,84.28
2022-11-24T20:09:04.153Z,83.55
2022-11-24T20:11:35.087Z,83.52
2022-11-24T20:14:06.731Z,83.39
2022-11-24T20:16:37.889Z,83.43
2022-11-24T20:19:11.825Z,83.08
2022-11-24T20:21:46.194Z,83.32
2022-11-24T20:24:18.640Z,83.47
2022-11-24T20:26:51.426Z,83.40
2022-11-24T20:29:22.602Z,83.34
2022-11-24T20:31:54.805Z,83.28
2022-11-24T20:34:26.330Z,83.42
2022-11-24T20:36:57.023Z,83.45
2022-11-24T20:39:28.828Z,83.36
2022-11-24T20:41:59.454Z,83.37
2022-11-24T20:44:30.407Z,83.44
2022-11-24T20:47:02.904Z,83.45
2022-11-24T20:49:33.822Z,83.41
2022-11-24T20:52:04.718Z,83.54
2022-11-24T20:54:35.550Z,83.47
2022-11-24T20:57:06.495Z,83.25
2022-11-24T20:59:37.425Z,83.27
2022-11-24T21:02:08.322Z,83.31
2022-11-24T21:04:39.298Z,83.54
2022-11-24T21:07:13.491Z,83.69
2022-11-24T21:09:44.306Z,83.42
2022-11-24T21:12:15.086Z,83.36
2022-11-24T21:14:45.717Z,83.31
2022-11-24T21:17:16.590Z,83.17
2022-11-24T21:19:47.530Z,83.18
2022-11-24T21:22:18.327Z,83.17
2022-11-24T21:24:49.012Z,83.11
2022-11-24T21:27:19.689Z,83.20
2022-11-24T21:29:50.354Z,83.46
2022-11-24T21:32:20.996Z,83.20
2022-11-24T21:34:51.597Z,83.33
2022-11-24T21:37:22.218Z,83.23
2022-11-24T21:39:53.129Z,83.36
2022-11-24T21:42:24.041Z,83.44
2022-11-24T21:44:54.824Z,83.39
2022-11-24T21:47:26.412Z,83.06
2022-11-24T21:49:57.264Z,83.29
2022-11-24T21:52:28.033Z,83.39
2022-11-24T21:54:58.582Z,83.04
2022-11-24T21:57:31.188Z,83.33
2022-11-24T22:00:01.900Z,83.50
2022-11-24T22:02:52.563Z,83.33
2022-11-24T22:05:25.129Z,83.22
2022-11-24T22:07:55.998Z,83.34
2022-11-24T22:10:26.795Z,83.39
2022-11-24T22:12:57.515Z,83.42
2022-11-24T22:15:28.281Z,83.37
2022-11-24T22:17:58.958Z,83.47
2022-11-24T22:20:29.685Z,83.51
2022-11-24T22:23:00.435Z,83.63
2022-11-24T22:25:31.100Z,83.89
2022-11-24T22:28:01.857Z,83.98
2022-11-24T22:30:32.721Z,83.77
2022-11-24T22:33:03.533Z,83.82
2022-11-24T22:35:34.282Z,83.84
2022-11-24T22:38:04.960Z,83.75
2022-11-24T22:40:35.704Z,83.72
2022-11-24T22:43:06.489Z,83.85
2022-11-24T22:45:37.976Z,83.73
2022-11-24T22:48:09.200Z,83.66
2022-11-24T22:50:39.846Z,83.68
2022-11-24T22:53:10.612Z,83.52
2022-11-24T22:55:41.410Z,83.70
2022-11-24T22:58:11.989Z,83.30
2022-11-24T23:00:42.670Z,83.31
2022-11-24T23:03:13.556Z,83.39
2022-11-24T23:05:44.368Z,83.41
2022-11-24T23:08:15.115Z,83.57
2022-11-24T23:10:45.848Z,83.28
2022-11-24T23:13:16.415Z,83.37
2022-11-24T23:15:47.065Z,83.43
2022-11-24T23:18:17.774Z,83.30
2022-11-24T23:20:48.461Z,83.54
2022-11-24T23:23:19.027Z,83.44
2022-11-24T23:25:49.682Z,83.31
2022-11-24T23:28:20.410Z,83.18
2022-11-24T23:30:50.990Z,83.15
2022-11-24T23:33:21.600Z,83.45
2022-11-24T23:35:52.117Z,83.34
2022-11-24T23:38:22.749Z,83.37
2022-11-24T23:40:55.922Z,83.11
2022-11-24T23:43:26.658Z,82.85
2022-11-24T23:46:01.754Z,83.07
2022-11-24T23:48:32.465Z,82.83
2022-11-24T23:51:08.671Z,82.77
2022-11-24T23:53:39.735Z,83.20
2022-11-24T23:56:12.679Z,83.24
2022-11-24T23:58:41.880Z,83.29
